Time;durP1;ratioP1;P1;durP2;ratioP2;P2;SDS_P1;SDS_P2;PMS_P1;PMS_P2;Temp;Humidity;BMP_temperature;BMP_pressure;BME280_temperature;BME280_humidity;BME280_pressure;Samples;Min_cycle;Max_cycle;Signal;HPM_P1;HPM_P2
2022/03/03 00:02:23;;;;;;;32.00;23.00;;;4.30;99.90;;;;;;5092492;28;20204;-79
2022/03/03 00:04:50;;;;;;;30.85;23.75;;;4.30;99.90;;;;;;5097771;28;20206;-81
2022/03/03 00:07:17;;;;;;;30.98;22.42;;;4.30;99.90;;;;;;5097798;28;20187;-81
2022/03/03 00:09:45;;;;;;;31.17;21.17;;;4.40;99.90;;;;;;5092943;28;20718;-82
2022/03/03 00:12:12;;;;;;;41.47;25.80;;;4.30;99.90;;;;;;5087929;28;20694;-81
2022/03/03 00:14:39;;;;;;;35.72;23.30;;;4.20;99.90;;;;;;5088334;28;20199;-81
2022/03/03 00:17:07;;;;;;;38.92;24.92;;;4.20;99.90;;;;;;5087230;28;20219;-80
2022/03/03 00:19:33;;;;;;;38.78;22.55;;;4.20;99.90;;;;;;5087956;28;20238;-81
2022/03/03 00:22:00;;;;;;;39.80;25.20;;;4.20;99.90;;;;;;5085928;28;20199;-82
2022/03/03 00:24:27;;;;;;;35.28;23.83;;;4.10;99.90;;;;;;5080927;28;20211;-81
2022/03/03 00:26:56;;;;;;;37.75;23.67;;;4.00;99.90;;;;;;5082327;28;20214;-81
2022/03/03 00:29:23;;;;;;;39.22;23.92;;;4.10;99.90;;;;;;5086248;28;20249;-81
2022/03/03 00:31:50;;;;;;;38.60;25.55;;;4.20;99.90;;;;;;5086391;28;20199;-81
2022/03/03 00:34:16;;;;;;;32.97;23.85;;;4.00;99.90;;;;;;5086299;28;20295;-81
2022/03/03 00:36:43;;;;;;;31.55;23.20;;;4.10;99.90;;;;;;5100020;28;20260;-83
2022/03/03 00:39:11;;;;;;;36.33;24.20;;;4.20;99.90;;;;;;5086486;28;20206;-81
2022/03/03 00:41:38;;;;;;;40.17;23.92;;;4.10;99.90;;;;;;5086298;28;20723;-80
2022/03/03 00:44:07;;;;;;;37.70;24.63;;;4.10;99.90;;;;;;5090164;28;20226;-81
2022/03/03 00:46:34;;;;;;;39.75;25.55;;;4.00;99.90;;;;;;5088864;28;20210;-82
2022/03/03 00:49:01;;;;;;;37.78;25.67;;;4.00;99.90;;;;;;5087942;28;20218;-81
2022/03/03 00:51:27;;;;;;;36.55;24.45;;;4.00;99.90;;;;;;5086017;28;20199;-82
2022/03/03 00:53:55;;;;;;;35.10;22.75;;;4.00;99.90;;;;;;5085283;28;20286;-81
2022/03/03 00:56:22;;;;;;;38.08;24.80;;;4.00;99.90;;;;;;5086667;28;20191;-81
2022/03/03 00:58:49;;;;;;;40.75;25.05;;;3.90;99.90;;;;;;5084863;28;20289;-81
2022/03/03 01:01:18;;;;;;;33.58;23.05;;;3.90;99.90;;;;;;5086392;28;20237;-81
2022/03/03 01:03:45;;;;;;;37.65;25.25;;;3.90;99.90;;;;;;5083280;28;20214;-81
2022/03/03 01:06:13;;;;;;;42.50;25.70;;;3.90;99.90;;;;;;5084982;28;20262;-81
2022/03/03 01:08:56;;;;;;;41.03;26.17;;;3.90;99.90;;;;;;5084765;28;20217;-81
2022/03/03 01:11:23;;;;;;;37.88;24.42;;;3.90;99.90;;;;;;5082749;28;20291;-80
2022/03/03 01:13:50;;;;;;;45.60;24.30;;;3.90;99.90;;;;;;5079157;28;20245;-81
2022/03/03 01:16:18;;;;;;;39.47;24.80;;;3.90;99.90;;;;;;5084658;28;20675;-81
2022/03/03 01:18:45;;;;;;;37.25;24.33;;;3.80;99.90;;;;;;5084218;28;20201;-81
2022/03/03 01:21:12;;;;;;;39.88;26.95;;;3.80;99.90;;;;;;5084377;28;20613;-81
2022/03/03 01:23:39;;;;;;;38.47;24.25;;;3.70;99.90;;;;;;5086827;28;20205;-80
2022/03/03 01:26:06;;;;;;;43.60;26.00;;;3.70;99.90;;;;;;5084640;28;20274;-80
2022/03/03 01:28:33;;;;;;;36.15;24.80;;;4.00;99.90;;;;;;5084246;28;20205;-81
2022/03/03 01:31:00;;;;;;;41.85;26.65;;;3.70;99.90;;;;;;5084446;28;20260;-80
2022/03/03 01:33:28;;;;;;;45.95;27.35;;;3.70;99.90;;;;;;5087187;28;20290;-79
2022/03/03 01:35:55;;;;;;;43.97;27.00;;;3.80;99.90;;;;;;5094283;28;20237;-79
2022/03/03 01:38:21;;;;;;;38.63;24.67;;;3.70;99.90;;;;;;5094649;28;20226;-81
2022/03/03 01:40:48;;;;;;;39.90;25.52;;;3.70;99.90;;;;;;5094531;28;20306;-81
2022/03/03 01:43:15;;;;;;;47.08;28.90;;;3.70;99.90;;;;;;5096004;28;20183;-81
2022/03/03 01:45:42;;;;;;;41.63;26.27;;;3.80;99.90;;;;;;5095533;28;20206;-81
2022/03/03 01:48:09;;;;;;;45.17;26.58;;;3.60;99.90;;;;;;5093419;28;20214;-82
2022/03/03 01:50:38;;;;;;;41.50;26.63;;;3.50;99.90;;;;;;5106340;28;20221;-80
2022/03/03 01:53:05;;;;;;;43.72;25.15;;;3.50;99.90;;;;;;5079655;28;20215;-81
2022/03/03 01:55:33;;;;;;;49.42;27.70;;;3.50;99.90;;;;;;5085658;28;20261;-81
2022/03/03 01:58:03;;;;;;;48.90;30.23;;;3.50;99.90;;;;;;5090236;28;20229;-81
2022/03/03 02:00:30;;;;;;;44.70;28.67;;;3.50;99.90;;;;;;5091622;28;20218;-79
2022/03/03 02:02:57;;;;;;;44.83;29.23;;;3.50;99.90;;;;;;5091407;28;20210;-81
2022/03/03 02:05:24;;;;;;;43.03;26.85;;;3.50;99.90;;;;;;5092367;28;20289;-80
2022/03/03 02:07:52;;;;;;;48.83;28.42;;;3.50;99.90;;;;;;5087401;28;20638;-83
2022/03/03 02:10:19;;;;;;;44.15;26.92;;;3.50;99.90;;;;;;5090996;28;20283;-81
2022/03/03 02:12:46;;;;;;;47.60;28.17;;;3.50;99.90;;;;;;5086126;28;20304;-80
2022/03/03 02:15:17;;;;;;;51.17;28.35;;;3.70;99.90;;;;;;5086951;28;20265;-81
2022/03/03 02:17:44;;;;;;;47.10;30.83;;;3.40;99.90;;;;;;5081160;28;20225;-82
2022/03/03 02:20:21;;;;;;;45.40;28.50;;;3.30;99.90;;;;;;5084910;28;20229;-82
2022/03/03 02:22:48;;;;;;;46.90;28.33;;;3.30;99.90;;;;;;5087016;28;20275;-81
2022/03/03 02:25:15;;;;;;;53.90;29.58;;;3.30;99.90;;;;;;5086846;28;20210;-81
2022/03/03 02:27:44;;;;;;;48.47;29.55;;;3.20;99.90;;;;;;5070156;28;20217;-82
2022/03/03 02:30:11;;;;;;;55.00;31.20;;;3.20;99.90;;;;;;5097401;28;20242;-82
2022/03/03 02:32:39;;;;;;;45.30;28.02;;;3.20;99.90;;;;;;5092723;28;20232;-82
2022/03/03 02:35:06;;;;;;;47.45;28.90;;;3.20;99.90;;;;;;5089413;28;20231;-81
2022/03/03 02:37:35;;;;;;;46.55;31.02;;;3.10;99.90;;;;;;5071454;28;20225;-81
2022/03/03 02:40:03;;;;;;;50.78;30.75;;;3.20;99.90;;;;;;5069948;28;20219;-83
2022/03/03 02:42:30;;;;;;;52.28;30.60;;;3.10;99.90;;;;;;5070994;28;20207;-81
2022/03/03 02:44:57;;;;;;;47.47;30.83;;;3.10;99.90;;;;;;5082115;28;20186;-81
2022/03/03 02:47:24;;;;;;;44.97;30.27;;;3.10;99.90;;;;;;5101450;28;20198;-79
2022/03/03 02:49:51;;;;;;;50.13;28.70;;;3.00;99.90;;;;;;5100919;28;20210;-80
2022/03/03 02:52:18;;;;;;;47.28;30.92;;;3.00;99.90;;;;;;5101089;28;20179;-80
2022/03/03 02:54:46;;;;;;;51.47;32.63;;;2.90;99.90;;;;;;5100360;28;20246;-81
2022/03/03 02:59:59;;;;;;;56.00;31.52;;;2.90;99.90;;;;;;5101008;28;20223;-82
2022/03/03 03:02:26;;;;;;;60.70;34.55;;;2.80;99.90;;;;;;5100846;28;20220;-81
2022/03/03 03:04:53;;;;;;;57.42;29.90;;;2.80;99.90;;;;;;5100446;28;20262;-80
2022/03/03 03:07:20;;;;;;;53.72;32.22;;;2.80;99.90;;;;;;5100301;28;20213;-81
2022/03/03 03:09:48;;;;;;;48.72;29.02;;;2.80;99.90;;;;;;5092169;28;20248;-81
2022/03/03 03:12:15;;;;;;;50.97;30.85;;;2.70;99.90;;;;;;5090413;28;20207;-82
2022/03/03 03:14:42;;;;;;;54.05;33.38;;;2.70;99.90;;;;;;5087918;28;20309;-82
2022/03/03 03:17:09;;;;;;;60.50;32.47;;;2.90;99.90;;;;;;5088080;28;20199;-82
2022/03/03 03:19:36;;;;;;;56.75;32.60;;;2.50;99.90;;;;;;5089233;28;20231;-80
2022/03/03 03:22:04;;;;;;;57.67;32.72;;;2.70;99.90;;;;;;5089451;28;20256;-81
2022/03/03 03:24:30;;;;;;;53.17;32.90;;;2.40;99.90;;;;;;5090858;28;20236;-80
2022/03/03 03:26:59;;;;;;;59.20;33.97;;;2.40;99.90;;;;;;5089966;28;20610;-82
2022/03/03 03:29:26;;;;;;;58.70;34.90;;;2.40;99.90;;;;;;5095214;28;20225;-81
2022/03/03 03:31:53;;;;;;;62.05;36.45;;;2.30;99.90;;;;;;5097728;28;20211;-81
2022/03/03 03:34:19;;;;;;;68.05;37.13;;;2.30;99.90;;;;;;5096697;28;20248;-82
2022/03/03 03:36:47;;;;;;;60.85;36.88;;;2.20;99.90;;;;;;5096552;28;20218;-80
2022/03/03 03:39:13;;;;;;;56.00;34.22;;;2.30;99.90;;;;;;5104149;28;20269;-80
2022/03/03 03:41:43;;;;;;;64.20;36.28;;;2.30;99.90;;;;;;5102605;28;20220;-81
2022/03/03 03:44:11;;;;;;;63.58;35.90;;;2.20;99.90;;;;;;5095836;28;20198;-81
2022/03/03 03:46:38;;;;;;;60.53;33.60;;;2.10;99.90;;;;;;5095823;28;20203;-81
2022/03/03 03:49:06;;;;;;;58.80;35.55;;;2.30;99.90;;;;;;5094252;28;20230;-82
2022/03/03 03:51:33;;;;;;;55.45;35.03;;;2.10;99.90;;;;;;5093339;28;20237;-80
2022/03/03 03:54:00;;;;;;;54.35;34.25;;;2.10;99.90;;;;;;5100267;28;20222;-81
2022/03/03 03:56:27;;;;;;;68.40;35.33;;;2.10;99.90;;;;;;5094440;28;20198;-81
2022/03/03 03:58:54;;;;;;;64.75;37.22;;;2.20;99.90;;;;;;5093925;28;20270;-82
2022/03/03 04:01:22;;;;;;;65.07;35.05;;;2.20;99.90;;;;;;5093803;28;20711;-81
2022/03/03 04:03:49;;;;;;;68.18;34.97;;;2.20;99.90;;;;;;5093417;28;20181;-81
2022/03/03 04:06:16;;;;;;;70.07;37.50;;;2.20;99.90;;;;;;5089771;28;20203;-82
2022/03/03 04:08:43;;;;;;;70.90;37.20;;;2.10;99.90;;;;;;5093215;28;20263;-82
2022/03/03 04:11:10;;;;;;;74.97;38.95;;;2.10;99.90;;;;;;5092303;28;20219;-82
2022/03/03 04:13:37;;;;;;;69.38;39.80;;;2.30;99.90;;;;;;5089208;28;20225;-81
2022/03/03 04:16:04;;;;;;;65.90;37.30;;;2.10;99.90;;;;;;5084478;28;20285;-82
2022/03/03 04:18:33;;;;;;;69.03;38.15;;;2.00;99.90;;;;;;5095702;28;20198;-81
2022/03/03 04:21:00;;;;;;;73.28;39.05;;;2.00;99.90;;;;;;5091689;28;20231;-80
2022/03/03 04:23:27;;;;;;;70.07;39.47;;;2.00;99.90;;;;;;5091261;28;20199;-82
2022/03/03 04:25:54;;;;;;;65.85;37.13;;;2.10;99.90;;;;;;5092908;28;20214;-82
2022/03/03 04:28:21;;;;;;;62.58;37.17;;;1.90;99.90;;;;;;5090067;28;20209;-81
2022/03/03 04:30:48;;;;;;;68.40;39.03;;;2.00;99.90;;;;;;5088493;28;20219;-82
2022/03/03 04:33:15;;;;;;;68.38;37.92;;;1.90;99.90;;;;;;5083358;28;20207;-82
2022/03/03 04:35:43;;;;;;;77.50;38.85;;;2.00;99.90;;;;;;5084731;28;20305;-80
2022/03/03 04:38:10;;;;;;;69.00;38.13;;;2.00;99.90;;;;;;5082753;28;20238;-83
2022/03/03 04:40:38;;;;;;;69.80;37.95;;;2.00;99.90;;;;;;5084318;28;20253;-81
2022/03/03 04:43:05;;;;;;;74.53;39.30;;;1.90;99.90;;;;;;5083697;28;20207;-82
2022/03/03 04:45:32;;;;;;;75.30;41.75;;;1.90;99.90;;;;;;5096903;28;20627;-82
2022/03/03 04:47:59;;;;;;;67.05;39.25;;;2.00;99.90;;;;;;5088325;28;20231;-82
2022/03/03 04:50:26;;;;;;;70.60;37.67;;;1.90;99.90;;;;;;5087535;28;20233;-82
2022/03/03 04:52:55;;;;;;;82.72;43.65;;;1.90;99.90;;;;;;5088482;28;20706;-81
2022/03/03 04:55:22;;;;;;;72.57;38.95;;;1.90;99.90;;;;;;5089138;28;20218;-82
2022/03/03 04:57:49;;;;;;;77.35;40.75;;;1.80;99.90;;;;;;5086821;28;20294;-80
2022/03/03 05:00:17;;;;;;;69.35;36.90;;;1.80;99.90;;;;;;5082843;28;20720;-81
2022/03/03 05:02:44;;;;;;;79.53;42.75;;;1.80;99.90;;;;;;5083768;28;20264;-82
2022/03/03 05:05:11;;;;;;;70.93;39.47;;;1.90;99.90;;;;;;5083049;28;20210;-81
2022/03/03 05:07:38;;;;;;;70.22;39.47;;;1.90;99.90;;;;;;5095248;28;20281;-81
2022/03/03 05:10:08;;;;;;;66.18;38.90;;;1.90;99.90;;;;;;5087882;28;20240;-81
2022/03/03 05:12:34;;;;;;;71.88;40.50;;;1.70;99.90;;;;;;5087424;28;20199;-82
2022/03/03 05:15:02;;;;;;;73.70;41.85;;;1.80;99.90;;;;;;5089577;28;20305;-83
2022/03/03 05:17:29;;;;;;;85.03;44.53;;;1.90;99.90;;;;;;5090598;28;20233;-81
2022/03/03 05:19:57;;;;;;;72.22;40.20;;;1.70;99.90;;;;;;5078529;28;20237;-82
2022/03/03 05:22:24;;;;;;;81.25;40.92;;;1.70;99.90;;;;;;5091148;28;20214;-80
2022/03/03 05:24:52;;;;;;;90.07;44.45;;;1.70;99.90;;;;;;5090760;28;20194;-80
2022/03/03 05:27:21;;;;;;;76.05;40.30;;;1.80;99.90;;;;;;5096419;28;20199;-82
2022/03/03 05:29:48;;;;;;;81.80;45.08;;;1.60;99.90;;;;;;5096506;28;20211;-82
2022/03/03 05:32:17;;;;;;;89.00;43.85;;;1.60;99.90;;;;;;5092357;28;20206;-83
2022/03/03 05:34:46;;;;;;;78.57;43.45;;;1.60;99.90;;;;;;5101063;28;20270;-83
2022/03/03 05:37:15;;;;;;;88.68;47.10;;;1.60;99.90;;;;;;5089800;28;20206;-82
2022/03/03 05:39:43;;;;;;;90.75;46.25;;;1.60;99.90;;;;;;5090097;28;20229;-82
2022/03/03 05:42:12;;;;;;;86.65;42.47;;;1.60;99.90;;;;;;5090497;28;20210;-82
2022/03/03 05:44:41;;;;;;;86.28;45.75;;;1.60;99.90;;;;;;5088404;28;20281;-80
2022/03/03 05:47:09;;;;;;;86.40;48.22;;;1.60;99.90;;;;;;5085015;28;20647;-83
2022/03/03 05:49:37;;;;;;;87.80;46.55;;;1.60;99.90;;;;;;5087784;28;20229;-82
2022/03/03 05:52:04;;;;;;;85.63;44.50;;;1.60;99.90;;;;;;5087498;28;20662;-81
2022/03/03 05:54:31;;;;;;;85.10;45.45;;;1.60;99.90;;;;;;5089335;28;20202;-80
2022/03/03 05:57:01;;;;;;;83.20;42.58;;;1.60;99.90;;;;;;5095912;28;20234;-80
2022/03/03 05:59:32;;;;;;;77.68;43.72;;;1.60;99.90;;;;;;5084278;28;20229;-81
2022/03/03 06:02:00;;;;;;;95.85;48.63;;;1.60;99.90;;;;;;5089774;28;20187;-82
2022/03/03 06:04:29;;;;;;;93.03;45.92;;;1.60;99.90;;;;;;5096821;28;20225;-81
2022/03/03 06:07:05;;;;;;;87.13;45.97;;;1.50;99.90;;;;;;5096193;28;20187;-81
2022/03/03 06:09:33;;;;;;;95.75;47.15;;;1.60;99.90;;;;;;5093558;28;20214;-79
2022/03/03 06:12:06;;;;;;;94.57;58.40;;;1.70;99.90;;;;;;5094782;28;20938;-82
2022/03/03 06:14:38;;;;;;;90.05;48.88;;;1.70;99.90;;;;;;5092570;28;20702;-82
2022/03/03 06:17:07;;;;;;;90.72;47.65;;;1.80;99.90;;;;;;5097436;28;20199;-83
2022/03/03 06:19:40;;;;;;;95.47;49.13;;;1.80;99.90;;;;;;5086512;28;20266;-84
2022/03/03 06:22:07;;;;;;;89.45;45.50;;;1.70;99.90;;;;;;5081133;28;20195;-81
2022/03/03 06:24:34;;;;;;;85.75;46.22;;;1.80;99.90;;;;;;5095301;28;20206;-82
2022/03/03 06:27:01;;;;;;;89.88;46.58;;;1.90;99.90;;;;;;5094031;28;20190;-83
2022/03/03 06:29:29;;;;;;;99.35;49.78;;;2.00;99.90;;;;;;5094669;28;20214;-82
2022/03/03 06:31:56;;;;;;;81.85;46.45;;;1.80;99.90;;;;;;5094984;28;20260;-83
2022/03/03 06:34:24;;;;;;;93.50;48.05;;;1.90;99.90;;;;;;5097070;28;20237;-81
2022/03/03 06:36:51;;;;;;;79.15;46.50;;;1.90;99.90;;;;;;5097710;28;20229;-81
2022/03/03 06:39:18;;;;;;;84.82;45.13;;;1.90;99.90;;;;;;5098896;28;20226;-82
2022/03/03 06:41:46;;;;;;;101.85;48.65;;;2.00;99.90;;;;;;5089879;28;20428;-82
2022/03/03 06:44:13;;;;;;;105.68;51.92;;;2.10;99.90;;;;;;5096160;28;20202;-83
2022/03/03 06:46:40;;;;;;;92.68;46.28;;;2.10;99.90;;;;;;5096646;28;20201;-80
2022/03/03 06:49:08;;;;;;;82.05;49.10;;;2.20;99.90;;;;;;5091172;28;20203;-83
2022/03/03 06:51:40;;;;;;;91.72;46.55;;;2.30;99.90;;;;;;5092835;28;20248;-82
2022/03/03 06:54:11;;;;;;;86.13;48.10;;;2.30;99.90;;;;;;5091433;28;20258;-85
2022/03/03 06:56:45;;;;;;;92.03;45.42;;;2.30;99.90;;;;;;5091099;28;20214;-80
2022/03/03 06:59:15;;;;;;;83.88;45.17;;;2.60;99.90;;;;;;5093623;28;20222;-80
2022/03/03 07:01:42;;;;;;;84.97;43.65;;;2.60;99.90;;;;;;5090467;28;20210;-81
2022/03/03 07:04:10;;;;;;;91.10;47.22;;;2.80;99.90;;;;;;5095071;28;20212;-79
2022/03/03 07:06:38;;;;;;;84.50;43.65;;;3.30;99.90;;;;;;5095522;28;20220;-82
2022/03/03 07:09:05;;;;;;;73.65;40.90;;;4.10;99.90;;;;;;5095861;28;20226;-80
2022/03/03 07:11:33;;;;;;;73.88;41.10;;;4.80;99.90;;;;;;5096909;28;20217;-79
2022/03/03 07:14:00;;;;;;;71.60;41.33;;;5.90;99.90;;;;;;5097106;28;20257;-81
2022/03/03 07:16:37;;;;;;;66.00;38.72;;;6.50;99.90;;;;;;5094995;28;20222;-82
2022/03/03 07:19:05;;;;;;;68.57;41.33;;;7.40;99.90;;;;;;5094940;28;20206;-81
2022/03/03 07:21:45;;;;;;;64.38;39.85;;;7.90;99.90;;;;;;5099701;28;20206;-82
2022/03/03 07:24:21;;;;;;;57.97;37.38;;;8.40;99.90;;;;;;5099947;28;20243;-80
2022/03/03 07:26:57;;;;;;;64.57;37.80;;;8.80;99.90;;;;;;5100322;28;20250;-79
2022/03/03 07:29:27;;;;;;;61.00;37.30;;;9.60;99.90;;;;;;5100302;28;20211;-78
2022/03/03 07:31:57;;;;;;;57.33;38.90;;;10.60;99.50;;;;;;5099355;28;20201;-83
2022/03/03 07:34:29;;;;;;;52.33;36.08;;;11.10;96.20;;;;;;5097207;28;20210;-83
2022/03/03 07:37:02;;;;;;;61.47;39.00;;;11.60;93.80;;;;;;5074582;28;20276;-82
2022/03/03 07:39:39;;;;;;;59.45;39.83;;;12.10;91.70;;;;;;5072449;28;20250;-81
2022/03/03 07:42:06;;;;;;;60.72;39.35;;;12.50;91.00;;;;;;5088200;28;20237;-80
2022/03/03 07:44:35;;;;;;;63.95;39.15;;;12.20;89.50;;;;;;5105319;28;20210;-81
2022/03/03 07:47:03;;;;;;;61.38;40.38;;;12.30;90.30;;;;;;5092497;28;20223;-82
2022/03/03 07:49:31;;;;;;;57.28;39.30;;;12.50;88.80;;;;;;5091938;28;20223;-81
2022/03/03 07:51:59;;;;;;;60.42;39.05;;;12.30;88.60;;;;;;5104386;28;20285;-82
2022/03/03 07:54:26;;;;;;;60.05;38.40;;;12.50;87.70;;;;;;5095071;28;20241;-81
2022/03/03 07:56:57;;;;;;;56.75;37.63;;;12.70;87.20;;;;;;5085432;28;20603;-84
2022/03/03 07:59:28;;;;;;;60.75;38.92;;;13.10;86.70;;;;;;5091334;28;20235;-82
2022/03/03 08:01:58;;;;;;;63.25;40.45;;;13.60;86.00;;;;;;5091046;28;20223;-84
2022/03/03 08:04:28;;;;;;;60.03;40.95;;;14.20;83.70;;;;;;5080850;28;20204;-82
2022/03/03 08:07:00;;;;;;;58.72;42.22;;;14.80;81.20;;;;;;5090634;28;20203;-82
2022/03/03 08:09:31;;;;;;;70.40;38.90;;;14.50;79.10;;;;;;5090991;28;20211;-80
2022/03/03 08:12:03;;;;;;;70.45;41.80;;;14.80;79.60;;;;;;5091184;28;20217;-82
2022/03/03 08:14:31;;;;;;;60.67;42.57;;;15.10;77.90;;;;;;5090805;28;20217;-83
2022/03/03 08:16:58;;;;;;;70.10;45.00;;;15.40;77.40;;;;;;5089474;28;20495;-84
2022/03/03 08:19:25;;;;;;;56.63;40.07;;;15.80;76.20;;;;;;5090614;28;20464;-81
2022/03/03 08:21:52;;;;;;;58.67;42.77;;;15.90;73.80;;;;;;5091418;28;20504;-82
2022/03/03 08:24:19;;;;;;;56.33;38.50;;;15.70;75.00;;;;;;5086096;28;20797;-83
2022/03/03 08:26:48;;;;;;;59.67;42.03;;;16.30;80.40;;;;;;5088619;28;20493;-81
2022/03/03 08:29:19;;;;;;;57.17;40.03;;;16.90;79.20;;;;;;5090047;28;20949;-81
2022/03/03 08:31:53;;;;;;;55.43;40.27;;;17.30;77.70;;;;;;5080125;28;20514;-83
2022/03/03 08:34:29;;;;;;;61.83;40.87;;;17.80;76.30;;;;;;5091189;28;20445;-82
2022/03/03 08:37:00;;;;;;;61.00;41.77;;;17.80;73.00;;;;;;5088881;28;20509;-82
2022/03/03 08:39:29;;;;;;;52.27;38.60;;;17.80;73.00;;;;;;5092915;28;20462;-83
2022/03/03 08:42:00;;;;;;;52.60;39.43;;;18.30;72.60;;;;;;5095204;28;20442;-82
2022/03/03 08:44:28;;;;;;;46.37;36.67;;;17.80;69.10;;;;;;5098602;28;20450;-77
2022/03/03 08:46:58;;;;;;;46.13;34.80;;;18.10;71.20;;;;;;5098256;28;20440;-79
2022/03/03 08:49:30;;;;;;;44.17;34.20;;;18.20;69.90;;;;;;5078557;28;20468;-80
2022/03/03 08:51:57;;;;;;;37.30;31.83;;;18.80;69.80;;;;;;5078168;28;20418;-79
2022/03/03 08:54:24;;;;;;;47.93;36.20;;;19.30;66.90;;;;;;5078768;28;20416;-79
2022/03/03 08:56:51;;;;;;;41.90;32.97;;;19.40;65.70;;;;;;5079147;28;20538;-78
2022/03/03 08:59:19;;;;;;;45.10;35.83;;;19.40;65.30;;;;;;5097468;28;20458;-79
2022/03/03 09:01:46;;;;;;;49.20;37.00;;;19.10;65.00;;;;;;5097889;28;20465;-79
2022/03/03 09:04:13;;;;;;;57.60;38.47;;;18.40;65.50;;;;;;5097028;28;20441;-79
2022/03/03 09:06:40;;;;;;;50.10;38.30;;;17.90;65.30;;;;;;5097494;28;20463;-77
2022/03/03 09:09:07;;;;;;;47.63;35.47;;;17.40;65.90;;;;;;5097572;28;20453;-78
2022/03/03 09:11:36;;;;;;;49.70;36.20;;;17.60;68.40;;;;;;5092036;28;20455;-83
2022/03/03 09:14:04;;;;;;;48.80;37.17;;;18.00;66.40;;;;;;5089436;28;20470;-81
2022/03/03 09:16:32;;;;;;;44.17;36.13;;;18.50;65.30;;;;;;5089562;28;20551;-81
2022/03/03 09:19:00;;;;;;;42.90;32.77;;;18.00;66.40;;;;;;5093614;28;20468;-83
2022/03/03 09:21:28;;;;;;;48.47;37.63;;;18.00;66.60;;;;;;5093525;28;20445;-80
2022/03/03 09:23:54;;;;;;;47.07;34.10;;;18.40;65.90;;;;;;5090499;28;20527;-82
2022/03/03 09:26:21;;;;;;;47.67;35.27;;;19.10;65.40;;;;;;5089950;28;20493;-82
2022/03/03 09:28:48;;;;;;;47.67;36.77;;;18.70;64.50;;;;;;5087853;28;20509;-81
2022/03/03 09:31:15;;;;;;;47.37;37.10;;;18.50;64.00;;;;;;5093560;28;20502;-83
2022/03/03 09:33:44;;;;;;;46.10;37.80;;;18.40;62.50;;;;;;5096396;22;20481;-75
2022/03/03 09:36:11;;;;;;;48.43;36.60;;;18.80;62.60;;;;;;5054065;28;20485;-72
2022/03/03 09:38:38;;;;;;;48.63;36.80;;;19.00;61.60;;;;;;5054480;28;20499;-71
2022/03/03 09:41:04;;;;;;;41.80;32.53;;;18.30;62.20;;;;;;5051852;28;20458;-72
2022/03/03 09:43:32;;;;;;;45.43;35.63;;;18.50;61.90;;;;;;5052580;28;20486;-72
2022/03/03 09:45:58;;;;;;;45.20;33.70;;;18.60;61.60;;;;;;5052615;28;20454;-72
2022/03/03 09:48:25;;;;;;;42.73;34.77;;;18.80;61.30;;;;;;5052862;28;20470;-73
2022/03/03 09:50:54;;;;;;;43.50;34.47;;;19.00;61.70;;;;;;5051524;28;20546;-75
2022/03/03 09:53:21;;;;;;;46.47;36.10;;;18.90;60.60;;;;;;5052903;28;20532;-74
2022/03/03 09:55:49;;;;;;;49.57;37.57;;;18.40;60.80;;;;;;5050569;28;20478;-74
2022/03/03 09:58:16;;;;;;;48.57;37.07;;;17.70;61.90;;;;;;5052480;28;20540;-74
2022/03/03 10:00:43;;;;;;;47.80;36.27;;;17.10;63.30;;;;;;5051834;28;20535;-77
2022/03/03 10:03:13;;;;;;;43.77;36.30;;;17.30;64.20;;;;;;5052661;28;20454;-73
2022/03/03 10:05:42;;;;;;;47.10;35.83;;;17.40;64.90;;;;;;5052327;28;20541;-74
2022/03/03 10:08:12;;;;;;;44.53;35.33;;;17.90;64.00;;;;;;5051560;28;20855;-75
2022/03/03 10:10:41;;;;;;;46.97;36.77;;;17.80;63.50;;;;;;5044571;28;20446;-75
2022/03/03 10:13:09;;;;;;;45.33;36.67;;;17.80;64.10;;;;;;5052500;28;20438;-73
2022/03/03 10:15:36;;;;;;;47.50;36.47;;;17.60;65.70;;;;;;5052592;28;20511;-73
2022/03/03 10:18:06;;;;;;;54.73;38.80;;;17.60;64.10;;;;;;5053206;28;21033;-73
2022/03/03 10:20:39;;;;;;;49.58;39.38;;;17.10;64.10;;;;;;5052291;28;20498;-73
2022/03/03 10:23:11;;;;;;;44.58;35.72;;;16.70;65.60;;;;;;5052048;28;20539;-73
2022/03/03 10:25:40;;;;;;;46.45;36.42;;;16.40;66.50;;;;;;5052124;28;20213;-73
2022/03/03 10:28:15;;;;;;;48.47;36.45;;;16.50;66.20;;;;;;5044724;28;20292;-73
2022/03/03 10:30:54;;;;;;;54.92;36.72;;;16.40;66.60;;;;;;5050640;28;20201;-72
2022/03/03 10:33:25;;;;;;;45.80;35.08;;;16.40;66.80;;;;;;5046591;28;20290;-73
2022/03/03 10:36:05;;;;;;;53.53;37.88;;;16.30;67.50;;;;;;5051994;28;20226;-71
2022/03/03 10:38:35;;;;;;;44.38;35.00;;;16.40;67.40;;;;;;5052187;28;20259;-74
2022/03/03 10:41:02;;;;;;;54.63;37.80;;;16.10;68.30;;;;;;5051241;28;20243;-73
2022/03/03 10:43:47;;;;;;;54.50;39.27;;;15.80;69.80;;;;;;5051950;28;20201;-73
2022/03/03 10:46:14;;;;;;;51.40;36.28;;;15.80;70.10;;;;;;5051710;28;20447;-74
2022/03/03 10:48:41;;;;;;;47.80;35.47;;;15.40;70.00;;;;;;5051750;28;20469;-73
2022/03/03 10:51:11;;;;;;;46.95;34.08;;;15.30;70.00;;;;;;5050854;28;20222;-73
2022/03/03 10:53:39;;;;;;;47.35;35.22;;;14.60;70.40;;;;;;5052758;28;20192;-71
2022/03/03 10:56:08;;;;;;;64.30;44.38;;;14.30;72.50;;;;;;5057160;28;20290;-73
2022/03/03 10:58:46;;;;;;;41.05;29.95;;;14.30;72.90;;;;;;5057235;28;20291;-74
2022/03/03 11:01:14;;;;;;;39.70;28.75;;;13.90;72.10;;;;;;5048451;28;20223;-70
2022/03/03 11:03:44;;;;;;;42.25;29.50;;;13.30;71.20;;;;;;5055901;28;20668;-73
2022/03/03 11:06:12;;;;;;;44.22;28.35;;;12.90;72.60;;;;;;5056161;28;20210;-74
2022/03/03 11:08:40;;;;;;;32.85;23.45;;;12.50;74.20;;;;;;5056043;28;20190;-73
2022/03/03 11:11:08;;;;;;;37.47;25.58;;;12.60;74.80;;;;;;5054613;28;20740;-74
2022/03/03 11:13:36;;;;;;;35.22;25.30;;;12.40;75.10;;;;;;5055372;28;20309;-76
2022/03/03 11:16:03;;;;;;;30.15;20.45;;;12.30;74.80;;;;;;5055848;28;20194;-73
2022/03/03 11:18:30;;;;;;;29.65;20.33;;;12.30;73.00;;;;;;5055458;28;20308;-72
2022/03/03 11:20:58;;;;;;;25.67;18.17;;;12.10;72.10;;;;;;5054282;28;20596;-73
2022/03/03 11:23:26;;;;;;;26.45;18.70;;;11.90;72.90;;;;;;5055160;28;20240;-73
2022/03/03 11:25:54;;;;;;;32.55;21.98;;;12.10;73.40;;;;;;5055552;28;20286;-72
2022/03/03 11:28:35;;;;;;;24.10;15.55;;;12.00;73.30;;;;;;5055425;28;20311;-72
2022/03/03 11:31:23;;;;;;;22.45;14.95;;;11.40;71.50;;;;;;5054858;28;20339;-75
2022/03/03 11:34:10;;;;;;;22.85;16.50;;;11.30;72.40;;;;;;5056611;28;20287;-73
2022/03/03 11:36:44;;;;;;;21.50;14.18;;;11.10;73.60;;;;;;5051572;28;20223;-72
2022/03/03 11:39:31;;;;;;;24.23;17.70;;;11.10;73.80;;;;;;5053741;28;20680;-72
2022/03/03 11:42:27;;;;;;;23.00;15.13;;;10.90;76.20;;;;;;5055635;28;20315;-74
2022/03/03 11:44:57;;;;;;;25.35;16.60;;;10.90;75.70;;;;;;5047626;28;20303;-74
2022/03/03 11:47:26;;;;;;;19.67;12.77;;;10.90;75.80;;;;;;5057054;28;20284;-71
2022/03/03 11:50:12;;;;;;;20.55;11.80;;;11.00;76.00;;;;;;5054555;28;20232;-71
2022/03/03 11:52:43;;;;;;;21.35;12.15;;;11.10;76.50;;;;;;5054724;28;20224;-72
2022/03/03 11:55:34;;;;;;;15.77;10.32;;;11.10;75.80;;;;;;5065224;28;20229;-68
2022/03/03 11:58:14;;;;;;;15.18;10.00;;;10.90;76.60;;;;;;5065739;28;20220;-72
2022/03/03 12:00:43;;;;;;;11.80;8.20;;;11.00;76.70;;;;;;5061695;28;20227;-72
2022/03/03 12:03:11;;;;;;;13.00;8.93;;;11.00;75.20;;;;;;5058548;28;20547;-72
2022/03/03 12:05:43;;;;;;;11.43;7.63;;;11.00;74.50;;;;;;5053551;28;20262;-72
2022/03/03 12:08:31;;;;;;;12.23;7.53;;;11.10;74.70;;;;;;5049764;28;20288;-73
2022/03/03 12:11:01;;;;;;;12.60;9.23;;;11.00;74.70;;;;;;5053646;28;20216;-72
2022/03/03 12:13:32;;;;;;;12.50;7.60;;;10.90;74.70;;;;;;5054626;28;20566;-71
2022/03/03 12:16:23;;;;;;;7.97;5.85;;;10.80;74.70;;;;;;5054489;28;20299;-69
2022/03/03 12:19:04;;;;;;;7.85;5.60;;;10.50;74.30;;;;;;5056158;28;20196;-70
2022/03/03 12:21:33;;;;;;;7.97;5.15;;;10.40;74.70;;;;;;5054219;28;20289;-73
2022/03/03 12:24:33;;;;;;;12.23;7.22;;;10.40;75.90;;;;;;5054687;28;20255;-73
2022/03/03 12:27:15;;;;;;;11.70;9.30;;;10.50;77.00;;;;;;5054050;28;20196;-71
2022/03/03 12:29:52;;;;;;;13.10;9.10;;;10.50;77.90;;;;;;5053441;28;20196;-74
2022/03/03 12:32:36;;;;;;;16.52;9.35;;;10.50;78.40;;;;;;5053833;28;20227;-71
2022/03/03 12:35:10;;;;;;;11.80;7.20;;;10.30;79.30;;;;;;5028705;28;20215;-76
2022/03/03 12:37:45;;;;;;;10.52;7.43;;;10.20;79.90;;;;;;5054220;28;20209;-73
2022/03/03 12:40:15;;;;;;;13.30;9.20;;;10.10;80.90;;;;;;5047064;28;20195;-71
2022/03/03 12:42:45;;;;;;;11.50;8.85;;;9.90;83.30;;;;;;5053717;28;20266;-72
2022/03/03 12:45:16;;;;;;;12.38;8.65;;;9.90;84.90;;;;;;5053480;28;20207;-70
2022/03/03 12:47:46;;;;;;;14.07;9.48;;;10.00;86.20;;;;;;5054009;28;20629;-74